KMWC

Lawrence J Timmerman Airport

Milwaukee, Wisconsin, USA
METAR KMWC 141245Z 25004KT 7SM SKC 22/18 A3000
Observed Flight Rules
Aug-14 @ 12:45 UTC (56 minutes ago) Visual Flight Rules
Wind Visibility Clouds
250° at 4 knots 7 miles
  • Clear skies
Temperatures Readings
Current 22°C / 72°F
Dewpoint 18°C / 64°F
Humidity 78%
Altimeter 30" Hg
Pressure 1016 hPa
Elevation 227
METAR KMWC 141245Z 25004KT 7SM SKC 22/18 A3000
Observed Flight Rules
Aug-14 @ 12:45 UTC
(56 minutes ago)
VFR
Wind Visibility
250° at 4 knots 7 miles
Clouds
  • Clear skies
Temperature Dewpoint
22°C / 72°F 18°C / 64°F
Humidity Altimeter Pressure
78% 30" Hg 1016 hPa